sensor_id;sensor_type;location;lat;lon;timestamp;pressure;altitude;pressure_sealevel;temperature;humidity
79589;BME280;69067;51.930;4.492;2024-03-25T00:00:40;100758.59;;;23.00;36.05
79589;BME280;69067;51.930;4.492;2024-03-25T00:03:05;100766.53;;;23.02;36.25
79589;BME280;69067;51.930;4.492;2024-03-25T00:05:31;100763.84;;;23.08;36.15
79589;BME280;69067;51.930;4.492;2024-03-25T00:07:58;100759.00;;;22.97;36.91
79589;BME280;69067;51.930;4.492;2024-03-25T00:10:24;100759.00;;;22.97;36.39
79589;BME280;69067;51.930;4.492;2024-03-25T00:12:50;100762.13;;;22.94;35.79
79589;BME280;69067;51.930;4.492;2024-03-25T00:15:20;100764.22;;;22.92;36.35
79589;BME280;69067;51.930;4.492;2024-03-25T00:17:49;100755.66;;;22.89;36.19
79589;BME280;69067;51.930;4.492;2024-03-25T00:20:15;100758.59;;;22.94;36.14
79589;BME280;69067;51.930;4.492;2024-03-25T00:22:41;100756.91;;;22.99;36.20
79589;BME280;69067;51.930;4.492;2024-03-25T00:25:08;100757.09;;;22.91;36.95
79589;BME280;69067;51.930;4.492;2024-03-25T00:27:34;100760.88;;;23.03;36.39
79589;BME280;69067;51.930;4.492;2024-03-25T00:30:00;100759.22;;;23.02;35.98
79589;BME280;69067;51.930;4.492;2024-03-25T00:32:26;100766.09;;;22.98;35.71
79589;BME280;69067;51.930;4.492;2024-03-25T00:34:52;100761.09;;;22.95;35.93
79589;BME280;69067;51.930;4.492;2024-03-25T00:37:18;100758.13;;;22.90;36.58
79589;BME280;69067;51.930;4.492;2024-03-25T00:39:44;100764.41;;;22.91;36.85
79589;BME280;69067;51.930;4.492;2024-03-25T00:42:10;100768.41;;;22.95;36.06
79589;BME280;69067;51.930;4.492;2024-03-25T00:44:36;100764.59;;;22.89;36.65
79589;BME280;69067;51.930;4.492;2024-03-25T00:47:02;100771.50;;;22.92;36.64
79589;BME280;69067;51.930;4.492;2024-03-25T00:49:27;100773.59;;;22.96;36.66
79589;BME280;69067;51.930;4.492;2024-03-25T00:51:53;100772.34;;;22.92;36.41
79589;BME280;69067;51.930;4.492;2024-03-25T00:54:19;100771.09;;;22.88;36.55
79589;BME280;69067;51.930;4.492;2024-03-25T00:56:44;100767.75;;;22.86;36.90
79589;BME280;69067;51.930;4.492;2024-03-25T00:59:12;100776.94;;;22.85;36.58
79589;BME280;69067;51.930;4.492;2024-03-25T01:01:37;100772.97;;;22.88;36.49
79589;BME280;69067;51.930;4.492;2024-03-25T01:04:03;100779.44;;;22.87;35.86
79589;BME280;69067;51.930;4.492;2024-03-25T01:06:29;100772.97;;;22.81;37.06
79589;BME280;69067;51.930;4.492;2024-03-25T01:08:55;100776.28;;;22.83;36.66
79589;BME280;69067;51.930;4.492;2024-03-25T01:11:21;100781.13;;;22.88;37.00
79589;BME280;69067;51.930;4.492;2024-03-25T01:13:47;100780.28;;;22.87;36.49
79589;BME280;69067;51.930;4.492;2024-03-25T01:16:13;100785.28;;;22.90;36.81
79589;BME280;69067;51.930;4.492;2024-03-25T01:18:39;100779.47;;;22.93;36.38
79589;BME280;69067;51.930;4.492;2024-03-25T01:21:05;100770.47;;;22.86;36.02
79589;BME280;69067;51.930;4.492;2024-03-25T01:23:31;100769.44;;;22.87;36.31
79589;BME280;69067;51.930;4.492;2024-03-25T01:25:57;100772.31;;;22.79;36.76
79589;BME280;69067;51.930;4.492;2024-03-25T01:28:22;100780.69;;;22.84;36.86
79589;BME280;69067;51.930;4.492;2024-03-25T01:30:49;100773.19;;;22.86;36.13
79589;BME280;69067;51.930;4.492;2024-03-25T01:33:14;100766.91;;;22.79;36.71
79589;BME280;69067;51.930;4.492;2024-03-25T01:35:40;100772.75;;;22.89;36.02
79589;BME280;69067;51.930;4.492;2024-03-25T01:38:06;100772.16;;;22.87;36.11
79589;BME280;69067;51.930;4.492;2024-03-25T01:40:33;100775.25;;;22.84;36.31
79589;BME280;69067;51.930;4.492;2024-03-25T01:43:02;100779.44;;;22.87;36.83
79589;BME280;69067;51.930;4.492;2024-03-25T01:45:35;100762.34;;;22.93;36.51
79589;BME280;69067;51.930;4.492;2024-03-25T01:48:08;100762.34;;;22.93;36.73
79589;BME280;69067;51.930;4.492;2024-03-25T01:50:42;100767.31;;;22.89;36.24
79589;BME280;69067;51.930;4.492;2024-03-25T01:53:09;100764.84;;;22.88;36.22
79589;BME280;69067;51.930;4.492;2024-03-25T01:55:37;100764.41;;;22.84;36.78
79589;BME280;69067;51.930;4.492;2024-03-25T01:58:04;100762.13;;;22.88;36.39
79589;BME280;69067;51.930;4.492;2024-03-25T02:00:32;100760.25;;;22.88;35.78
79589;BME280;69067;51.930;4.492;2024-03-25T02:02:58;100764.41;;;22.91;35.81
79589;BME280;69067;51.930;4.492;2024-03-25T02:05:24;100761.88;;;22.89;36.20
79589;BME280;69067;51.930;4.492;2024-03-25T02:07:51;100758.78;;;22.92;36.59
79589;BME280;69067;51.930;4.492;2024-03-25T02:10:18;100761.09;;;22.95;35.85
79589;BME280;69067;51.930;4.492;2024-03-25T02:12:45;100754.81;;;22.88;36.74
79589;BME280;69067;51.930;4.492;2024-03-25T02:15:12;100759.19;;;22.96;36.61
79589;BME280;69067;51.930;4.492;2024-03-25T02:17:41;100751.88;;;22.90;36.46
79589;BME280;69067;51.930;4.492;2024-03-25T02:20:07;100755.66;;;22.89;36.16
79589;BME280;69067;51.930;4.492;2024-03-25T02:22:35;100752.72;;;22.90;36.40
79589;BME280;69067;51.930;4.492;2024-03-25T02:25:11;100742.88;;;22.89;35.77
79589;BME280;69067;51.930;4.492;2024-03-25T02:27:38;100735.56;;;22.83;36.52
79589;BME280;69067;51.930;4.492;2024-03-25T02:30:09;100736.19;;;22.78;35.74
79589;BME280;69067;51.930;4.492;2024-03-25T02:32:38;100733.69;;;22.84;36.22
79589;BME280;69067;51.930;4.492;2024-03-25T02:35:15;100733.94;;;22.89;35.90
79589;BME280;69067;51.930;4.492;2024-03-25T02:37:42;100727.03;;;22.86;36.38
79589;BME280;69067;51.930;4.492;2024-03-25T02:40:09;100730.56;;;22.80;36.91
79589;BME280;69067;51.930;4.492;2024-03-25T02:42:36;100736.22;;;22.85;36.32
79589;BME280;69067;51.930;4.492;2024-03-25T02:45:02;100733.50;;;22.85;36.42
79589;BME280;69067;51.930;4.492;2024-03-25T02:47:28;100732.66;;;22.91;36.60
79589;BME280;69067;51.930;4.492;2024-03-25T02:49:54;100732.03;;;22.89;36.49
79589;BME280;69067;51.930;4.492;2024-03-25T02:52:20;100726.38;;;22.84;36.20
79589;BME280;69067;51.930;4.492;2024-03-25T02:54:46;100728.91;;;22.86;36.54
79589;BME280;69067;51.930;4.492;2024-03-25T02:57:12;100723.47;;;22.86;36.50
79589;BME280;69067;51.930;4.492;2024-03-25T02:59:38;100726.00;;;22.87;36.67
79589;BME280;69067;51.930;4.492;2024-03-25T03:02:04;100718.88;;;22.86;36.74
79589;BME280;69067;51.930;4.492;2024-03-25T03:04:30;100724.50;;;22.85;36.37
79589;BME280;69067;51.930;4.492;2024-03-25T03:06:56;100718.88;;;22.80;36.98
79589;BME280;69067;51.930;4.492;2024-03-25T03:09:23;100716.78;;;22.82;35.70
79589;BME280;69067;51.930;4.492;2024-03-25T03:11:48;100719.91;;;22.85;35.62
79589;BME280;69067;51.930;4.492;2024-03-25T03:14:14;100718.66;;;22.81;36.44
79589;BME280;69067;51.930;4.492;2024-03-25T03:16:40;100717.19;;;22.85;35.93
79589;BME280;69067;51.930;4.492;2024-03-25T03:19:05;100714.28;;;22.80;36.08
79589;BME280;69067;51.930;4.492;2024-03-25T03:21:31;100716.16;;;22.80;36.69
79589;BME280;69067;51.930;4.492;2024-03-25T03:23:57;100712.63;;;22.92;35.97
79589;BME280;69067;51.930;4.492;2024-03-25T03:26:23;100702.59;;;22.80;36.00
79589;BME280;69067;51.930;4.492;2024-03-25T03:28:58;100701.31;;;22.82;36.24
79589;BME280;69067;51.930;4.492;2024-03-25T03:31:24;100709.25;;;22.77;36.48
79589;BME280;69067;51.930;4.492;2024-03-25T03:33:51;100714.06;;;22.82;35.67
79589;BME280;69067;51.930;4.492;2024-03-25T03:36:21;100706.53;;;22.77;36.66
79589;BME280;69067;51.930;4.492;2024-03-25T03:38:50;100704.47;;;22.79;36.18
79589;BME280;69067;51.930;4.492;2024-03-25T03:41:17;100698.81;;;22.74;35.83
79589;BME280;69067;51.930;4.492;2024-03-25T03:43:43;100699.88;;;22.80;36.45
79589;BME280;69067;51.930;4.492;2024-03-25T03:46:08;100699.88;;;22.80;36.17
79589;BME280;69067;51.930;4.492;2024-03-25T03:48:34;100701.09;;;22.77;36.30
79589;BME280;69067;51.930;4.492;2024-03-25T03:51:01;100701.69;;;22.72;36.50
79589;BME280;69067;51.930;4.492;2024-03-25T03:53:27;100696.31;;;22.79;36.42
79589;BME280;69067;51.930;4.492;2024-03-25T03:55:57;100704.25;;;22.74;36.44
79589;BME280;69067;51.930;4.492;2024-03-25T03:58:24;100697.56;;;22.76;36.32
79589;BME280;69067;51.930;4.492;2024-03-25T04:00:51;100700.03;;;22.71;36.34
79589;BME280;69067;51.930;4.492;2024-03-25T04:03:18;100693.94;;;22.63;37.01
79589;BME280;69067;51.930;4.492;2024-03-25T04:05:44;100690.19;;;22.64;36.10
79589;BME280;69067;51.930;4.492;2024-03-25T04:08:10;100693.53;;;22.66;36.87
79589;BME280;69067;51.930;4.492;2024-03-25T04:10:37;100694.78;;;22.70;36.31
79589;BME280;69067;51.930;4.492;2024-03-25T04:13:07;100683.56;;;22.73;36.10
79589;BME280;69067;51.930;4.492;2024-03-25T04:15:37;100690.63;;;22.67;36.82
79589;BME280;69067;51.930;4.492;2024-03-25T04:18:05;100687.25;;;22.59;36.44
79589;BME280;69067;51.930;4.492;2024-03-25T04:20:39;100690.81;;;22.59;36.90
79589;BME280;69067;51.930;4.492;2024-03-25T04:23:06;100689.97;;;22.59;36.32
79589;BME280;69067;51.930;4.492;2024-03-25T04:25:35;100695.63;;;22.64;36.34
79589;BME280;69067;51.930;4.492;2024-03-25T04:28:05;100686.22;;;22.60;36.79
79589;BME280;69067;51.930;4.492;2024-03-25T04:30:31;100689.16;;;22.65;36.88
79589;BME280;69067;51.930;4.492;2024-03-25T04:32:58;100686.44;;;22.65;36.05
79589;BME280;69067;51.930;4.492;2024-03-25T04:35:24;100688.94;;;22.53;36.88
79589;BME280;69067;51.930;4.492;2024-03-25T04:37:50;100687.47;;;22.57;36.18
79589;BME280;69067;51.930;4.492;2024-03-25T04:40:15;100685.59;;;22.58;36.25
79589;BME280;69067;51.930;4.492;2024-03-25T04:42:45;100687.25;;;22.59;37.04
79589;BME280;69067;51.930;4.492;2024-03-25T04:45:11;100694.19;;;22.68;35.83
79589;BME280;69067;51.930;4.492;2024-03-25T04:47:37;100699.16;;;22.58;36.31
79589;BME280;69067;51.930;4.492;2024-03-25T04:50:03;100694.75;;;22.57;36.63
79589;BME280;69067;51.930;4.492;2024-03-25T04:52:30;100697.25;;;22.52;36.52
79589;BME280;69067;51.930;4.492;2024-03-25T04:54:56;100693.91;;;22.50;36.96
79589;BME280;69067;51.930;4.492;2024-03-25T04:57:22;100693.06;;;22.43;36.96
79589;BME280;69067;51.930;4.492;2024-03-25T04:59:48;100699.31;;;22.43;37.18
79589;BME280;69067;51.930;4.492;2024-03-25T05:02:14;100692.19;;;22.29;37.00
79589;BME280;69067;51.930;4.492;2024-03-25T05:04:40;100693.06;;;22.43;36.81
79589;BME280;69067;51.930;4.492;2024-03-25T05:07:05;100696.81;;;22.42;37.34
79589;BME280;69067;51.930;4.492;2024-03-25T05:09:31;100702.06;;;22.50;37.12
79589;BME280;69067;51.930;4.492;2024-03-25T05:11:57;100699.94;;;22.38;36.80
79589;BME280;69067;51.930;4.492;2024-03-25T05:14:23;100700.56;;;22.40;36.71
79589;BME280;69067;51.930;4.492;2024-03-25T05:16:49;100695.59;;;22.51;36.88
79589;BME280;69067;51.930;4.492;2024-03-25T05:19:15;100700.34;;;22.35;37.49
79589;BME280;69067;51.930;4.492;2024-03-25T05:21:41;100689.69;;;22.40;37.11
79589;BME280;69067;51.930;4.492;2024-03-25T05:24:06;100698.09;;;22.46;37.26
79589;BME280;69067;51.930;4.492;2024-03-25T05:26:32;100698.44;;;22.29;37.61
79589;BME280;69067;51.930;4.492;2024-03-25T05:28:58;100690.72;;;22.26;37.10
79589;BME280;69067;51.930;4.492;2024-03-25T05:31:24;100698.66;;;22.34;37.23
79589;BME280;69067;51.930;4.492;2024-03-25T05:33:50;100683.41;;;22.27;36.11
79589;BME280;69067;51.930;4.492;2024-03-25T05:36:16;100684.50;;;22.39;36.63
79589;BME280;69067;51.930;4.492;2024-03-25T05:38:42;100679.06;;;22.32;37.50
79589;BME280;69067;51.930;4.492;2024-03-25T05:41:11;100679.44;;;22.29;36.97
79589;BME280;69067;51.930;4.492;2024-03-25T05:43:37;100681.94;;;22.24;37.12
79589;BME280;69067;51.930;4.492;2024-03-25T05:46:03;100676.38;;;22.39;37.27
79589;BME280;69067;51.930;4.492;2024-03-25T05:48:30;100675.91;;;22.35;36.79
79589;BME280;69067;51.930;4.492;2024-03-25T05:51:00;100675.94;;;22.42;36.54
79589;BME280;69067;51.930;4.492;2024-03-25T05:53:27;100670.72;;;22.40;36.90
79589;BME280;69067;51.930;4.492;2024-03-25T05:55:53;100676.56;;;22.37;37.10
79589;BME280;69067;51.930;4.492;2024-03-25T05:58:19;100669.09;;;22.53;36.88
79589;BME280;69067;51.930;4.492;2024-03-25T06:00:49;100659.84;;;22.40;36.78
79589;BME280;69067;51.930;4.492;2024-03-25T06:03:15;100666.72;;;22.30;37.01
79589;BME280;69067;51.930;4.492;2024-03-25T06:05:42;100670.75;;;22.47;36.84
79589;BME280;69067;51.930;4.492;2024-03-25T06:08:08;100669.50;;;22.50;36.32
79589;BME280;69067;51.930;4.492;2024-03-25T06:10:41;100666.16;;;22.54;36.48
79589;BME280;69067;51.930;4.492;2024-03-25T06:13:07;100661.97;;;22.38;36.42
79589;BME280;69067;51.930;4.492;2024-03-25T06:15:32;100663.44;;;22.48;36.74
79589;BME280;69067;51.930;4.492;2024-03-25T06:17:58;100653.59;;;22.33;36.50
79589;BME280;69067;51.930;4.492;2024-03-25T06:20:24;100658.63;;;22.50;37.08
79589;BME280;69067;51.930;4.492;2024-03-25T06:22:49;100646.75;;;22.51;36.17
79589;BME280;69067;51.930;4.492;2024-03-25T06:25:16;100656.34;;;22.47;36.10
79589;BME280;69067;51.930;4.492;2024-03-25T06:27:43;100646.09;;;22.49;37.20
79589;BME280;69067;51.930;4.492;2024-03-25T06:30:10;100651.75;;;22.47;36.86
79589;BME280;69067;51.930;4.492;2024-03-25T06:32:54;100650.25;;;22.31;37.06
79589;BME280;69067;51.930;4.492;2024-03-25T06:35:39;100648.22;;;22.47;36.60
79589;BME280;69067;51.930;4.492;2024-03-25T06:38:04;100653.41;;;22.42;36.50
79589;BME280;69067;51.930;4.492;2024-03-25T06:40:30;100649.63;;;22.29;36.66
79589;BME280;69067;51.930;4.492;2024-03-25T06:42:56;100651.09;;;22.38;37.09
79589;BME280;69067;51.930;4.492;2024-03-25T06:45:22;100652.78;;;22.39;36.92
79589;BME280;69067;51.930;4.492;2024-03-25T06:47:48;100644.41;;;22.34;36.39
79589;BME280;69067;51.930;4.492;2024-03-25T06:50:14;100651.53;;;22.42;36.63
79589;BME280;69067;51.930;4.492;2024-03-25T06:52:40;100649.44;;;22.44;37.33
79589;BME280;69067;51.930;4.492;2024-03-25T06:55:05;100651.97;;;22.46;36.76
79589;BME280;69067;51.930;4.492;2024-03-25T06:57:31;100632.94;;;22.32;36.88
79589;BME280;69067;51.930;4.492;2024-03-25T06:59:57;100646.28;;;22.40;36.69
79589;BME280;69067;51.930;4.492;2024-03-25T07:02:23;100645.25;;;22.42;36.32
79589;BME280;69067;51.930;4.492;2024-03-25T07:04:49;100643.16;;;22.30;36.49
79589;BME280;69067;51.930;4.492;2024-03-25T07:07:15;100644.22;;;22.43;36.52
79589;BME280;69067;51.930;4.492;2024-03-25T07:09:41;100640.66;;;22.42;36.56
79589;BME280;69067;51.930;4.492;2024-03-25T07:12:06;100642.16;;;22.45;36.52
79589;BME280;69067;51.930;4.492;2024-03-25T07:14:32;100634.66;;;22.47;36.93
79589;BME280;69067;51.930;4.492;2024-03-25T07:16:58;100640.28;;;22.45;37.07
79589;BME280;69067;51.930;4.492;2024-03-25T07:19:24;100641.94;;;22.39;36.58
79589;BME280;69067;51.930;4.492;2024-03-25T07:21:49;100648.19;;;22.40;36.87
79589;BME280;69067;51.930;4.492;2024-03-25T07:24:15;100644.44;;;22.54;36.93
79589;BME280;69067;51.930;4.492;2024-03-25T07:26:41;100645.91;;;22.44;36.74
79589;BME280;69067;51.930;4.492;2024-03-25T07:29:06;100646.94;;;22.49;36.34
79589;BME280;69067;51.930;4.492;2024-03-25T07:31:32;100651.13;;;22.52;37.14
79589;BME280;69067;51.930;4.492;2024-03-25T07:33:58;100643.41;;;22.55;36.21
79589;BME280;69067;51.930;4.492;2024-03-25T07:36:24;100653.41;;;22.55;36.73
79589;BME280;69067;51.930;4.492;2024-03-25T07:38:49;100654.47;;;22.47;37.36
79589;BME280;69067;51.930;4.492;2024-03-25T07:41:15;100653.84;;;22.52;36.64
79589;BME280;69067;51.930;4.492;2024-03-25T07:43:41;100656.56;;;22.52;36.78
79589;BME280;69067;51.930;4.492;2024-03-25T07:46:06;100658.25;;;22.59;36.97
79589;BME280;69067;51.930;4.492;2024-03-25T07:48:32;100659.69;;;22.62;35.98
79589;BME280;69067;51.930;4.492;2024-03-25T07:50:58;100667.00;;;22.55;36.67
79589;BME280;69067;51.930;4.492;2024-03-25T07:53:23;100666.41;;;22.59;35.98
79589;BME280;69067;51.930;4.492;2024-03-25T07:55:49;100664.53;;;22.60;36.65
79589;BME280;69067;51.930;4.492;2024-03-25T07:58:16;100672.03;;;22.58;36.17
79589;BME280;69067;51.930;4.492;2024-03-25T08:00:42;100669.13;;;22.66;36.82
79589;BME280;69067;51.930;4.492;2024-03-25T08:03:07;100672.44;;;22.61;36.12
79589;BME280;69067;51.930;4.492;2024-03-25T08:05:33;100669.31;;;22.58;36.68
79589;BME280;69067;51.930;4.492;2024-03-25T08:07:59;100664.94;;;22.63;35.87
79589;BME280;69067;51.930;4.492;2024-03-25T08:10:25;100669.31;;;22.64;36.74
79589;BME280;69067;51.930;4.492;2024-03-25T08:12:50;100667.00;;;22.61;36.31
79589;BME280;69067;51.930;4.492;2024-03-25T08:15:16;100665.09;;;22.49;36.81
79589;BME280;69067;51.930;4.492;2024-03-25T08:17:42;100674.94;;;22.63;36.30
79589;BME280;69067;51.930;4.492;2024-03-25T08:20:08;100675.13;;;22.55;37.09
79589;BME280;69067;51.930;4.492;2024-03-25T08:22:34;100675.38;;;22.60;37.08
79589;BME280;69067;51.930;4.492;2024-03-25T08:24:59;100678.09;;;22.66;36.67
79589;BME280;69067;51.930;4.492;2024-03-25T08:27:25;100680.38;;;22.63;37.13
79589;BME280;69067;51.930;4.492;2024-03-25T08:29:51;100672.66;;;22.60;37.08
79589;BME280;69067;51.930;4.492;2024-03-25T08:32:18;100672.88;;;22.65;36.27
79589;BME280;69067;51.930;4.492;2024-03-25T08:34:44;100664.53;;;22.60;36.96
79589;BME280;69067;51.930;4.492;2024-03-25T08:37:11;100662.41;;;22.62;36.67
79589;BME280;69067;51.930;4.492;2024-03-25T08:39:37;100658.47;;;22.64;36.07
79589;BME280;69067;51.930;4.492;2024-03-25T08:42:03;100656.97;;;22.62;36.92
79589;BME280;69067;51.930;4.492;2024-03-25T08:44:28;100656.78;;;22.70;36.30
79589;BME280;69067;51.930;4.492;2024-03-25T08:46:54;100661.81;;;22.60;36.87
79589;BME280;69067;51.930;4.492;2024-03-25T08:49:20;100657.81;;;22.62;36.83
79589;BME280;69067;51.930;4.492;2024-03-25T08:51:46;100654.13;;;22.76;36.65
79589;BME280;69067;51.930;4.492;2024-03-25T08:54:12;100644.53;;;22.74;35.96
79589;BME280;69067;51.930;4.492;2024-03-25T08:56:38;100636.94;;;22.69;36.24
79589;BME280;69067;51.930;4.492;2024-03-25T08:59:03;100639.91;;;22.68;36.55
79589;BME280;69067;51.930;4.492;2024-03-25T09:01:29;100638.25;;;22.73;37.06
79589;BME280;69067;51.930;4.492;2024-03-25T09:03:56;100634.88;;;22.65;36.60
79589;BME280;69067;51.930;4.492;2024-03-25T09:06:21;100638.41;;;22.65;37.16
79589;BME280;69067;51.930;4.492;2024-03-25T09:08:47;100644.25;;;22.62;37.01
79589;BME280;69067;51.930;4.492;2024-03-25T09:11:31;100642.41;;;22.76;36.78
79589;BME280;69067;51.930;4.492;2024-03-25T09:13:57;100650.31;;;22.71;36.15
79589;BME280;69067;51.930;4.492;2024-03-25T09:16:23;100651.56;;;22.62;37.04
79589;BME280;69067;51.930;4.492;2024-03-25T09:18:49;100643.22;;;22.70;36.75
79589;BME280;69067;51.930;4.492;2024-03-25T09:21:14;100638.66;;;22.77;36.30
79589;BME280;69067;51.930;4.492;2024-03-25T09:23:40;100638.00;;;22.68;36.25
79589;BME280;69067;51.930;4.492;2024-03-25T09:26:06;100639.66;;;22.69;37.10
79589;BME280;69067;51.930;4.492;2024-03-25T09:28:31;100634.72;;;22.73;37.07
79589;BME280;69067;51.930;4.492;2024-03-25T09:30:57;100629.28;;;22.80;36.66
79589;BME280;69067;51.930;4.492;2024-03-25T09:33:22;100623.00;;;22.79;36.64
79589;BME280;69067;51.930;4.492;2024-03-25T09:35:49;100618.41;;;22.80;36.41
79589;BME280;69067;51.930;4.492;2024-03-25T09:38:15;100608.41;;;22.73;36.22
79589;BME280;69067;51.930;4.492;2024-03-25T09:40:41;100616.53;;;22.80;36.49
79589;BME280;69067;51.930;4.492;2024-03-25T09:43:16;100613.59;;;22.75;36.52
79589;BME280;69067;51.930;4.492;2024-03-25T09:45:48;100602.31;;;22.71;36.12
79589;BME280;69067;51.930;4.492;2024-03-25T09:48:21;100620.69;;;22.76;36.52
79589;BME280;69067;51.930;4.492;2024-03-25T09:50:46;100613.84;;;22.80;36.44
79589;BME280;69067;51.930;4.492;2024-03-25T09:53:12;100607.38;;;22.81;36.17
79589;BME280;69067;51.930;4.492;2024-03-25T09:55:38;100598.97;;;22.83;36.17
79589;BME280;69067;51.930;4.492;2024-03-25T09:58:05;100599.22;;;22.81;36.48
79589;BME280;69067;51.930;4.492;2024-03-25T10:00:30;100602.78;;;22.88;36.58
79589;BME280;69067;51.930;4.492;2024-03-25T10:02:56;100596.28;;;22.83;36.35
79589;BME280;69067;51.930;4.492;2024-03-25T10:05:22;100594.41;;;22.83;36.26
79589;BME280;69067;51.930;4.492;2024-03-25T10:07:47;100597.34;;;22.88;35.56
79589;BME280;69067;51.930;4.492;2024-03-25T10:10:13;100596.06;;;22.84;36.97
79589;BME280;69067;51.930;4.492;2024-03-25T10:12:40;100593.56;;;22.89;36.64
79589;BME280;69067;51.930;4.492;2024-03-25T10:15:06;100582.69;;;22.83;35.93
79589;BME280;69067;51.930;4.492;2024-03-25T10:17:34;100587.72;;;22.92;35.91
79589;BME280;69067;51.930;4.492;2024-03-25T10:20:00;100586.25;;;22.90;35.53
79589;BME280;69067;51.930;4.492;2024-03-25T10:22:26;100584.59;;;22.95;36.09
79589;BME280;69067;51.930;4.492;2024-03-25T10:24:51;100587.72;;;22.86;36.38
79589;BME280;69067;51.930;4.492;2024-03-25T10:27:22;100574.13;;;22.92;36.46
79589;BME280;69067;51.930;4.492;2024-03-25T10:29:53;100573.75;;;22.89;36.54
79589;BME280;69067;51.930;4.492;2024-03-25T10:32:20;100573.94;;;22.87;35.73
79589;BME280;69067;51.930;4.492;2024-03-25T10:34:47;100577.50;;;22.94;36.31
79589;BME280;69067;51.930;4.492;2024-03-25T10:37:14;100571.81;;;22.96;35.92
79589;BME280;69067;51.930;4.492;2024-03-25T10:39:48;100572.66;;;22.96;35.92
79589;BME280;69067;51.930;4.492;2024-03-25T10:42:19;100559.72;;;22.85;36.38
79589;BME280;69067;51.930;4.492;2024-03-25T10:44:47;100565.59;;;22.89;36.69
79589;BME280;69067;51.930;4.492;2024-03-25T10:47:19;100563.91;;;22.88;36.07
79589;BME280;69067;51.930;4.492;2024-03-25T10:50:07;100563.91;;;22.94;36.20
79589;BME280;69067;51.930;4.492;2024-03-25T10:52:36;100553.66;;;22.90;36.13
79589;BME280;69067;51.930;4.492;2024-03-25T10:55:03;100548.03;;;22.98;36.56
79589;BME280;69067;51.930;4.492;2024-03-25T10:57:30;100545.50;;;22.90;36.13
79589;BME280;69067;51.930;4.492;2024-03-25T10:59:57;100547.00;;;22.92;36.31
79589;BME280;69067;51.930;4.492;2024-03-25T11:02:24;100545.94;;;22.93;35.76
79589;BME280;69067;51.930;4.492;2024-03-25T11:04:51;100535.09;;;22.93;36.71
79589;BME280;69067;51.930;4.492;2024-03-25T11:07:30;100532.56;;;22.98;35.62
79589;BME280;69067;51.930;4.492;2024-03-25T11:10:04;100525.47;;;22.91;35.83
79589;BME280;69067;51.930;4.492;2024-03-25T11:12:35;100526.72;;;23.01;35.70
79589;BME280;69067;51.930;4.492;2024-03-25T11:15:03;100522.53;;;22.99;36.65
79589;BME280;69067;51.930;4.492;2024-03-25T11:17:32;100506.88;;;22.94;35.64
79589;BME280;69067;51.930;4.492;2024-03-25T11:20:09;100503.34;;;22.94;36.58
79589;BME280;69067;51.930;4.492;2024-03-25T11:22:36;100496.84;;;23.01;35.46
79589;BME280;69067;51.930;4.492;2024-03-25T11:25:13;100489.31;;;23.03;35.43
79589;BME280;69067;51.930;4.492;2024-03-25T11:27:39;100491.00;;;22.91;36.90
79589;BME280;69067;51.930;4.492;2024-03-25T11:30:08;100487.22;;;22.99;35.94
79589;BME280;69067;51.930;4.492;2024-03-25T11:32:47;100471.16;;;22.91;36.18
79589;BME280;69067;51.930;4.492;2024-03-25T11:35:17;100482.63;;;22.99;36.45
79589;BME280;69067;51.930;4.492;2024-03-25T11:37:43;100480.75;;;23.00;36.52
79589;BME280;69067;51.930;4.492;2024-03-25T11:40:10;100468.63;;;22.96;36.20
79589;BME280;69067;51.930;4.492;2024-03-25T11:42:43;100467.16;;;23.06;35.57
79589;BME280;69067;51.930;4.492;2024-03-25T11:45:20;100473.88;;;22.97;36.07
79589;BME280;69067;51.930;4.492;2024-03-25T11:47:48;100468.03;;;23.00;36.18
79589;BME280;69067;51.930;4.492;2024-03-25T11:50:16;100461.53;;;23.01;36.02
79589;BME280;69067;51.930;4.492;2024-03-25T11:52:43;100455.47;;;23.06;36.42
79589;BME280;69067;51.930;4.492;2024-03-25T11:55:09;100446.47;;;23.05;35.87
79589;BME280;69067;51.930;4.492;2024-03-25T11:57:37;100457.56;;;23.04;36.24
79589;BME280;69067;51.930;4.492;2024-03-25T12:00:04;100454.84;;;23.04;36.46
79589;BME280;69067;51.930;4.492;2024-03-25T12:02:32;100460.25;;;23.10;36.37
79589;BME280;69067;51.930;4.492;2024-03-25T12:04:58;100456.69;;;23.10;35.67
79589;BME280;69067;51.930;4.492;2024-03-25T12:07:24;100458.38;;;23.11;36.28
79589;BME280;69067;51.930;4.492;2024-03-25T12:09:49;100457.97;;;23.07;36.31
79589;BME280;69067;51.930;4.492;2024-03-25T12:12:34;100450.22;;;23.11;35.82
79589;BME280;69067;51.930;4.492;2024-03-25T12:15:05;100451.06;;;23.11;36.43
79589;BME280;69067;51.930;4.492;2024-03-25T12:17:33;100441.69;;;23.07;36.07
79589;BME280;69067;51.930;4.492;2024-03-25T12:20:06;100440.63;;;23.08;36.26
79589;BME280;69067;51.930;4.492;2024-03-25T12:22:36;100429.53;;;23.10;36.43
79589;BME280;69067;51.930;4.492;2024-03-25T12:25:07;100427.88;;;23.09;36.58
79589;BME280;69067;51.930;4.492;2024-03-25T12:27:35;100431.84;;;23.06;35.86
79589;BME280;69067;51.930;4.492;2024-03-25T12:30:10;100422.22;;;23.10;36.44
79589;BME280;69067;51.930;4.492;2024-03-25T12:32:40;100418.47;;;23.11;35.84
79589;BME280;69067;51.930;4.492;2024-03-25T12:35:09;100415.94;;;23.10;35.76
79589;BME280;69067;51.930;4.492;2024-03-25T12:37:46;100412.19;;;23.11;35.12
79589;BME280;69067;51.930;4.492;2024-03-25T12:40:27;100409.91;;;23.14;35.62
79589;BME280;69067;51.930;4.492;2024-03-25T12:42:55;100407.59;;;23.11;35.59
79589;BME280;69067;51.930;4.492;2024-03-25T12:45:21;100407.19;;;23.14;36.03
79589;BME280;69067;51.930;4.492;2024-03-25T12:50:15;100393.81;;;23.13;36.02
79589;BME280;69067;51.930;4.492;2024-03-25T12:52:41;100388.59;;;23.11;35.64